createdAt,value
2023-09-28T00:00:35.689Z,17.80
2023-09-28T00:03:05.800Z,16.50
2023-09-28T00:05:33.762Z,16.50
2023-09-28T00:08:01.882Z,15.50
2023-09-28T00:10:29.629Z,14.50
2023-09-28T00:12:57.250Z,17.00
2023-09-28T00:15:27.516Z,16.30
2023-09-28T00:17:56.240Z,16.00
2023-09-28T00:20:24.376Z,15.80
2023-09-28T00:22:54.253Z,16.60
2023-09-28T00:25:24.579Z,16.60
2023-09-28T00:27:54.167Z,17.10
2023-09-28T00:30:23.956Z,17.10
2023-09-28T00:32:55.627Z,16.20
2023-09-28T00:35:24.145Z,16.00
2023-09-28T00:37:51.988Z,16.70
2023-09-28T00:40:29.171Z,15.80
2023-09-28T00:42:57.019Z,15.50
2023-09-28T00:45:25.404Z,16.50
2023-09-28T00:48:00.320Z,16.00
2023-09-28T00:50:29.127Z,15.30
2023-09-28T00:53:00.123Z,16.40
2023-09-28T00:55:28.923Z,14.40
2023-09-28T00:58:01.677Z,15.10
2023-09-28T01:00:30.948Z,14.20
2023-09-28T01:03:00.388Z,15.00
2023-09-28T01:05:32.660Z,15.30
2023-09-28T01:08:11.113Z,15.40
2023-09-28T01:10:39.778Z,14.80
2023-09-28T01:13:13.038Z,15.20
2023-09-28T01:15:42.555Z,14.40
2023-09-28T01:18:11.326Z,15.30
2023-09-28T01:20:39.726Z,15.80
2023-09-28T01:23:07.238Z,14.20
2023-09-28T01:25:35.148Z,15.00
2023-09-28T01:28:02.563Z,14.10
2023-09-28T01:30:29.993Z,14.30
2023-09-28T01:32:57.488Z,15.20
2023-09-28T01:35:25.053Z,15.00
2023-09-28T01:38:16.702Z,15.70
2023-09-28T01:40:45.739Z,14.30
2023-09-28T01:43:13.293Z,15.40
2023-09-28T01:45:40.913Z,15.50
2023-09-28T01:48:08.342Z,14.40
2023-09-28T01:50:35.921Z,14.80
2023-09-28T01:53:03.823Z,14.80
2023-09-28T01:55:31.269Z,14.70
2023-09-28T01:57:58.723Z,15.00
2023-09-28T02:00:26.717Z,15.30
2023-09-28T02:02:56.246Z,15.80
2023-09-28T02:05:23.825Z,15.20
2023-09-28T02:07:51.933Z,15.00
2023-09-28T02:10:21.670Z,13.20
2023-09-28T02:12:48.975Z,12.20
2023-09-28T02:15:16.652Z,11.60
2023-09-28T02:17:45.767Z,11.60
2023-09-28T02:20:18.203Z,12.00
2023-09-28T02:22:46.588Z,12.00
2023-09-28T02:25:25.158Z,11.40
2023-09-28T02:27:53.643Z,12.10
2023-09-28T02:30:24.077Z,11.40
2023-09-28T02:32:52.923Z,13.60
2023-09-28T02:35:20.817Z,12.90
2023-09-28T02:37:50.507Z,13.90
2023-09-28T02:40:19.249Z,11.90
2023-09-28T02:42:49.652Z,12.30
2023-09-28T02:45:18.324Z,13.80
2023-09-28T02:47:48.619Z,12.90
2023-09-28T02:50:18.778Z,14.10
2023-09-28T02:52:49.650Z,13.20
2023-09-28T02:55:19.953Z,12.70
2023-09-28T02:57:49.044Z,12.70
2023-09-28T03:00:23.207Z,12.30
2023-09-28T03:02:54.454Z,13.00
2023-09-28T03:05:22.337Z,12.60
2023-09-28T03:07:50.150Z,13.20
2023-09-28T03:10:19.706Z,12.30
2023-09-28T03:12:48.365Z,12.00
2023-09-28T03:15:17.712Z,12.00
2023-09-28T03:17:47.876Z,12.60
2023-09-28T03:20:23.017Z,13.10
2023-09-28T03:22:51.089Z,12.00
2023-09-28T03:25:20.119Z,14.20
2023-09-28T03:27:49.803Z,12.90
2023-09-28T03:30:18.645Z,12.40
2023-09-28T03:32:48.734Z,12.50
2023-09-28T03:35:17.662Z,12.70
2023-09-28T03:37:45.841Z,12.40
2023-09-28T03:40:14.158Z,12.40
2023-09-28T03:42:42.806Z,13.00
2023-09-28T03:45:11.188Z,12.50
2023-09-28T03:47:39.261Z,13.50
2023-09-28T03:50:09.006Z,13.00
2023-09-28T03:52:38.430Z,12.10
2023-09-28T03:55:09.283Z,12.80
2023-09-28T03:57:37.275Z,11.30
2023-09-28T04:00:05.468Z,11.50
2023-09-28T04:02:40.033Z,11.80
2023-09-28T04:05:08.258Z,12.10
2023-09-28T04:07:36.258Z,11.30
2023-09-28T04:10:04.810Z,11.80
2023-09-28T04:12:32.262Z,12.80
2023-09-28T04:14:59.621Z,12.80
2023-09-28T04:17:27.085Z,12.60
2023-09-28T04:19:54.837Z,12.40
2023-09-28T04:22:22.224Z,14.60
2023-09-28T04:24:49.587Z,14.90
2023-09-28T04:27:17.964Z,14.50
2023-09-28T04:29:46.238Z,15.20
2023-09-28T04:32:13.723Z,14.10
2023-09-28T04:34:41.053Z,16.50
2023-09-28T04:37:08.422Z,16.20
2023-09-28T04:39:36.032Z,15.40
2023-09-28T04:42:03.493Z,14.20
2023-09-28T04:44:31.023Z,14.30
2023-09-28T04:46:58.463Z,13.20
2023-09-28T04:49:25.847Z,12.80
2023-09-28T04:51:53.455Z,13.20
2023-09-28T04:54:21.432Z,13.00
2023-09-28T04:56:48.772Z,14.00
2023-09-28T04:59:16.141Z,14.90
2023-09-28T05:01:43.992Z,15.10
2023-09-28T05:04:12.451Z,16.60
2023-09-28T05:06:41.438Z,16.20
2023-09-28T05:09:08.895Z,16.40
2023-09-28T05:11:36.212Z,15.20
2023-09-28T05:14:03.578Z,16.30
2023-09-28T05:16:31.048Z,16.00
2023-09-28T05:18:58.451Z,15.60
2023-09-28T05:21:25.846Z,15.80
2023-09-28T05:23:53.396Z,15.40
2023-09-28T05:26:21.082Z,16.70
2023-09-28T05:28:49.029Z,16.80
2023-09-28T05:31:16.702Z,17.70
2023-09-28T05:33:44.710Z,18.30
2023-09-28T05:36:12.803Z,17.10
2023-09-28T05:38:40.202Z,17.80
2023-09-28T05:41:07.664Z,17.70
2023-09-28T05:43:35.028Z,18.50
2023-09-28T05:46:02.418Z,17.80
2023-09-28T05:48:29.986Z,18.00
2023-09-28T05:50:57.375Z,17.90
2023-09-28T05:53:24.785Z,18.10
2023-09-28T05:55:52.984Z,16.70
2023-09-28T05:58:23.163Z,18.10
2023-09-28T06:00:50.553Z,17.00
2023-09-28T06:03:18.257Z,17.10
2023-09-28T06:05:45.671Z,16.80
2023-09-28T06:08:14.058Z,17.60
2023-09-28T06:10:41.681Z,17.80
2023-09-28T06:13:09.074Z,17.60
2023-09-28T06:15:36.805Z,17.40
2023-09-28T06:18:05.477Z,16.60
2023-09-28T06:20:37.976Z,16.70
2023-09-28T06:23:10.321Z,17.30
2023-09-28T06:25:37.913Z,15.60
2023-09-28T06:28:07.926Z,16.00
2023-09-28T06:30:35.388Z,16.70
2023-09-28T06:33:04.684Z,15.60
2023-09-28T06:35:32.643Z,15.30
2023-09-28T06:38:02.155Z,14.50
2023-09-28T06:40:29.715Z,13.60
2023-09-28T06:42:57.054Z,13.80
2023-09-28T06:45:24.607Z,14.00
2023-09-28T06:48:05.057Z,14.60
2023-09-28T06:50:41.670Z,13.80
2023-09-28T06:53:09.110Z,14.00
2023-09-28T06:55:37.203Z,13.90
2023-09-28T06:58:07.466Z,13.20
2023-09-28T07:00:36.623Z,13.00
2023-09-28T07:03:06.803Z,12.80
2023-09-28T07:05:37.456Z,13.50
2023-09-28T07:08:06.438Z,13.90
2023-09-28T07:10:34.842Z,13.60
2023-09-28T07:13:03.658Z,13.30
2023-09-28T07:15:32.100Z,12.60
2023-09-28T07:17:59.773Z,12.40
2023-09-28T07:20:27.751Z,12.60
2023-09-28T07:22:55.353Z,13.10
2023-09-28T07:25:22.766Z,13.80
2023-09-28T07:27:53.709Z,12.00
2023-09-28T07:30:21.658Z,11.90
2023-09-28T07:32:52.842Z,13.10
2023-09-28T07:35:20.799Z,12.80
2023-09-28T07:37:48.489Z,11.80
2023-09-28T07:40:25.826Z,11.70
2023-09-28T07:42:56.375Z,11.20
2023-09-28T07:45:23.907Z,10.30
2023-09-28T07:47:51.392Z,11.10
2023-09-28T07:50:18.971Z,10.40
2023-09-28T07:52:46.360Z,10.70
2023-09-28T07:55:14.791Z,10.40
2023-09-28T08:00:13.380Z,10.30
2023-09-28T08:02:41.903Z,10.00
2023-09-28T08:05:09.602Z,9.30
2023-09-28T08:07:36.990Z,9.70
2023-09-28T08:10:05.397Z,9.90
2023-09-28T08:12:35.481Z,9.20
2023-09-28T08:15:05.177Z,10.20
2023-09-28T08:17:34.525Z,9.70
2023-09-28T08:20:03.483Z,9.40
2023-09-28T08:22:31.319Z,10.20
2023-09-28T08:24:58.996Z,10.20
2023-09-28T08:27:26.836Z,9.60
2023-09-28T08:29:55.024Z,9.30
2023-09-28T08:32:22.618Z,8.90
2023-09-28T08:34:50.440Z,9.80
2023-09-28T08:37:17.908Z,9.20
2023-09-28T08:39:48.410Z,10.30
2023-09-28T08:42:16.416Z,9.00
2023-09-28T08:44:43.781Z,9.70
2023-09-28T08:47:18.250Z,9.20
2023-09-28T08:49:48.698Z,10.10
2023-09-28T08:52:19.045Z,9.20
2023-09-28T08:54:46.488Z,10.00
2023-09-28T08:57:14.470Z,9.30
2023-09-28T08:59:41.883Z,9.50
2023-09-28T09:02:09.927Z,10.20
2023-09-28T09:04:37.474Z,10.30
2023-09-28T09:07:05.643Z,9.40
2023-09-28T09:09:33.887Z,10.10
2023-09-28T09:12:01.452Z,10.00
2023-09-28T09:14:29.638Z,10.70
2023-09-28T09:16:57.250Z,10.30
2023-09-28T09:19:30.186Z,9.70
2023-09-28T09:21:58.681Z,9.40
2023-09-28T09:24:26.834Z,9.50
2023-09-28T09:26:54.842Z,9.50
2023-09-28T09:29:23.777Z,8.90
2023-09-28T09:31:52.287Z,9.30
2023-09-28T09:34:21.135Z,9.40
2023-09-28T09:36:53.307Z,9.00
2023-09-28T09:39:25.581Z,10.20
2023-09-28T09:41:54.182Z,11.50
2023-09-28T09:44:23.118Z,9.40
2023-09-28T09:46:51.671Z,8.90
2023-09-28T09:49:21.155Z,9.40
2023-09-28T09:51:49.509Z,9.40
2023-09-28T09:54:17.735Z,9.20
2023-09-28T09:56:47.628Z,9.10
2023-09-28T09:59:19.244Z,9.40
2023-09-28T10:01:54.886Z,9.30
2023-09-28T10:04:25.272Z,8.90
2023-09-28T10:06:53.626Z,8.50
2023-09-28T10:09:21.650Z,9.40
2023-09-28T10:11:51.054Z,9.10
2023-09-28T10:14:20.799Z,8.60
2023-09-28T10:16:49.843Z,9.30
2023-09-28T10:19:20.531Z,9.00
2023-09-28T10:21:48.309Z,9.40
2023-09-28T10:24:16.305Z,9.20
2023-09-28T10:26:48.236Z,8.40
2023-09-28T10:29:24.882Z,8.00
2023-09-28T10:31:58.304Z,9.60
2023-09-28T10:34:28.519Z,9.10
2023-09-28T10:37:09.483Z,8.20
2023-09-28T10:39:37.073Z,7.80
2023-09-28T10:42:13.115Z,7.90
2023-09-28T10:44:48.231Z,8.00
2023-09-28T10:47:16.526Z,8.00
2023-09-28T10:49:44.752Z,8.00
2023-09-28T10:52:12.251Z,7.90
2023-09-28T10:54:40.128Z,7.80
2023-09-28T10:57:07.824Z,7.80
2023-09-28T10:59:37.731Z,7.40
2023-09-28T11:02:05.622Z,7.20
2023-09-28T11:04:47.929Z,6.50
2023-09-28T11:07:18.953Z,6.80
2023-09-28T11:09:46.574Z,6.90
2023-09-28T11:12:14.627Z,7.20
2023-09-28T11:14:45.574Z,6.60
2023-09-28T11:17:13.180Z,6.10
2023-09-28T11:19:40.648Z,6.30
2023-09-28T11:22:08.700Z,6.00
2023-09-28T11:24:36.344Z,5.90
2023-09-28T11:27:03.819Z,5.90
2023-09-28T11:29:33.072Z,5.70
2023-09-28T11:32:00.637Z,5.60
2023-09-28T11:34:32.075Z,5.70
2023-09-28T11:36:59.786Z,5.50
2023-09-28T11:39:27.543Z,6.00
2023-09-28T11:42:01.771Z,5.80
2023-09-28T11:44:29.549Z,6.40
2023-09-28T11:46:58.020Z,6.10
2023-09-28T11:50:18.568Z,5.40
2023-09-28T11:52:48.245Z,5.50
2023-09-28T11:55:16.149Z,5.30
2023-09-28T11:57:46.703Z,6.20
2023-09-28T12:00:19.962Z,5.90
2023-09-28T12:02:50.242Z,5.60
2023-09-28T12:05:18.928Z,5.00
2023-09-28T12:07:46.529Z,5.30
2023-09-28T12:10:15.344Z,5.40
2023-09-28T12:12:43.021Z,5.60
2023-09-28T12:15:13.604Z,5.30
2023-09-28T12:17:41.797Z,5.60
2023-09-28T12:20:10.792Z,5.10
2023-09-28T12:22:38.693Z,5.40
2023-09-28T12:25:07.004Z,5.70
2023-09-28T12:27:35.536Z,5.40
2023-09-28T12:30:04.354Z,5.20
2023-09-28T12:32:32.028Z,4.60
2023-09-28T12:35:02.216Z,5.10
2023-09-28T12:37:31.036Z,5.40
2023-09-28T12:39:59.098Z,5.30
2023-09-28T12:42:26.796Z,5.70
2023-09-28T12:44:54.149Z,5.30
2023-09-28T12:47:22.123Z,5.20
2023-09-28T12:49:49.781Z,5.20
2023-09-28T12:52:17.308Z,4.70
2023-09-28T12:54:47.735Z,4.70
2023-09-28T12:57:15.272Z,5.00
2023-09-28T12:59:42.697Z,5.50
2023-09-28T13:02:10.062Z,5.20
2023-09-28T13:04:38.889Z,5.20
2023-09-28T13:07:06.459Z,5.00
2023-09-28T13:09:34.230Z,4.90
2023-09-28T13:12:01.826Z,5.30
2023-09-28T13:14:29.255Z,5.80
2023-09-28T13:16:57.382Z,4.90
2023-09-28T13:19:26.639Z,5.20
2023-09-28T13:21:55.474Z,5.40
2023-09-28T13:24:23.212Z,5.10
2023-09-28T13:26:50.918Z,5.10
2023-09-28T13:29:18.610Z,5.00
2023-09-28T13:31:48.661Z,5.20
2023-09-28T13:34:16.389Z,5.50
2023-09-28T13:36:44.055Z,5.20
2023-09-28T13:39:31.354Z,4.70
2023-09-28T13:42:02.539Z,4.80
2023-09-28T13:44:30.535Z,5.80
2023-09-28T13:46:58.750Z,6.30
2023-09-28T13:49:26.167Z,5.50
2023-09-28T13:51:54.352Z,8.50
2023-09-28T13:54:22.047Z,6.50
2023-09-28T13:56:49.704Z,5.50
2023-09-28T13:59:17.263Z,6.10
2023-09-28T14:01:44.936Z,5.40
2023-09-28T14:04:13.980Z,5.10
2023-09-28T14:06:41.963Z,5.00
2023-09-28T14:09:12.558Z,5.50
2023-09-28T14:11:43.731Z,6.00
2023-09-28T14:14:13.359Z,5.20
2023-09-28T14:16:40.881Z,5.50
2023-09-28T14:19:08.710Z,5.60
2023-09-28T14:21:40.631Z,6.20
2023-09-28T14:24:09.358Z,5.90
2023-09-28T14:26:37.237Z,5.80
2023-09-28T14:29:07.696Z,5.40
2023-09-28T14:31:38.064Z,6.00
2023-09-28T14:34:05.575Z,5.80
2023-09-28T14:36:33.580Z,5.60
2023-09-28T14:39:00.930Z,5.70
2023-09-28T14:41:29.776Z,6.20
2023-09-28T14:43:58.009Z,6.00
2023-09-28T14:46:25.450Z,6.10
2023-09-28T14:48:53.858Z,6.30
2023-09-28T14:51:21.183Z,6.40
2023-09-28T14:53:48.639Z,5.90
2023-09-28T14:56:16.201Z,6.50
2023-09-28T14:58:43.754Z,6.40
2023-09-28T15:01:12.760Z,6.60
2023-09-28T15:03:40.832Z,6.40
2023-09-28T15:06:08.856Z,6.90
2023-09-28T15:08:36.423Z,7.00
2023-09-28T15:11:03.834Z,7.10
2023-09-28T15:13:31.531Z,7.60
2023-09-28T15:16:00.683Z,8.00
2023-09-28T15:18:29.632Z,7.70
2023-09-28T15:20:57.077Z,6.60
2023-09-28T15:23:24.425Z,7.60
2023-09-28T15:25:52.441Z,7.20
2023-09-28T15:28:20.462Z,6.70
2023-09-28T15:30:57.425Z,6.90
2023-09-28T15:33:28.441Z,7.20
2023-09-28T15:35:58.751Z,7.00
2023-09-28T15:38:26.871Z,7.00
2023-09-28T15:40:54.475Z,7.60
2023-09-28T15:43:21.864Z,9.70
2023-09-28T15:45:49.576Z,11.80
2023-09-28T15:48:17.162Z,11.50
2023-09-28T15:50:44.802Z,11.80
2023-09-28T15:53:12.278Z,16.20
2023-09-28T15:55:39.687Z,27.20
2023-09-28T15:58:07.219Z,19.50
2023-09-28T16:00:38.282Z,15.20
2023-09-28T16:03:07.225Z,13.70
2023-09-28T16:05:35.110Z,11.00
2023-09-28T16:08:05.736Z,10.40
2023-09-28T16:10:33.263Z,10.40
2023-09-28T16:13:01.859Z,10.40
2023-09-28T16:15:29.225Z,10.00
2023-09-28T16:17:56.695Z,13.00
2023-09-28T16:20:24.385Z,16.30
2023-09-28T16:22:51.955Z,18.50
2023-09-28T16:25:19.452Z,18.20
2023-09-28T16:27:46.850Z,20.40
2023-09-28T16:30:14.580Z,24.00
2023-09-28T16:32:42.033Z,23.00
2023-09-28T16:35:10.177Z,22.20
2023-09-28T16:37:37.852Z,21.00
2023-09-28T16:40:05.937Z,21.60
2023-09-28T16:42:33.506Z,22.00
2023-09-28T16:45:01.330Z,17.80
2023-09-28T16:47:29.073Z,16.90
2023-09-28T16:49:56.780Z,16.50
2023-09-28T16:52:25.067Z,15.50
2023-09-28T16:54:52.415Z,17.80
2023-09-28T16:57:20.001Z,18.60
2023-09-28T16:59:47.391Z,22.70
2023-09-28T17:02:15.811Z,19.70
2023-09-28T17:04:43.586Z,15.30
2023-09-28T17:07:10.984Z,14.80
2023-09-28T17:09:38.462Z,15.60
2023-09-28T17:12:07.360Z,22.70
2023-09-28T17:14:37.538Z,25.00
2023-09-28T17:17:06.788Z,27.70
2023-09-28T17:19:34.427Z,23.80
2023-09-28T17:22:01.789Z,23.00
2023-09-28T17:24:29.189Z,21.30
2023-09-28T17:26:56.544Z,17.80
2023-09-28T17:29:25.789Z,16.00
2023-09-28T17:31:54.182Z,17.00
2023-09-28T17:34:22.177Z,15.70
2023-09-28T17:36:49.833Z,16.10
2023-09-28T17:39:17.226Z,16.20
2023-09-28T17:41:44.691Z,17.20
2023-09-28T17:44:12.210Z,17.80
2023-09-28T17:46:39.638Z,17.80
2023-09-28T17:49:08.758Z,19.00
2023-09-28T17:51:37.549Z,18.70
2023-09-28T17:54:05.913Z,18.90
2023-09-28T17:56:33.667Z,18.80
2023-09-28T17:59:01.236Z,18.90
2023-09-28T18:01:28.633Z,18.90
2023-09-28T18:03:56.501Z,19.50
2023-09-28T18:06:23.915Z,22.30
2023-09-28T18:08:51.399Z,22.80
2023-09-28T18:11:21.891Z,25.00
2023-09-28T18:13:50.816Z,24.40
2023-09-28T18:16:18.261Z,24.00
2023-09-28T18:18:46.857Z,23.50
2023-09-28T18:21:14.281Z,23.40
2023-09-28T18:23:41.959Z,22.10
2023-09-28T18:26:09.587Z,23.20
2023-09-28T18:28:38.745Z,23.30
2023-09-28T18:31:06.197Z,23.20
2023-09-28T18:33:33.693Z,22.00
2023-09-28T18:36:01.310Z,21.50
2023-09-28T18:38:29.411Z,20.50
2023-09-28T18:40:56.975Z,17.90
2023-09-28T18:43:24.664Z,17.20
2023-09-28T18:45:55.949Z,17.70
2023-09-28T18:48:24.871Z,16.30
2023-09-28T18:50:52.955Z,16.50
2023-09-28T18:53:21.278Z,17.30
2023-09-28T18:55:48.681Z,16.70
2023-09-28T18:58:16.056Z,18.10
2023-09-28T19:00:46.090Z,18.00
2023-09-28T19:03:13.780Z,17.00
2023-09-28T19:05:41.493Z,16.20
2023-09-28T19:08:09.696Z,15.60
2023-09-28T19:10:38.504Z,15.40
2023-09-28T19:13:05.944Z,15.70
2023-09-28T19:15:33.786Z,16.90
2023-09-28T19:18:01.448Z,16.30
2023-09-28T19:20:29.498Z,15.80
2023-09-28T19:22:56.929Z,16.80
2023-09-28T19:25:24.316Z,16.60
2023-09-28T19:27:51.958Z,17.30
2023-09-28T19:30:19.909Z,16.30
2023-09-28T19:32:47.490Z,16.00
2023-09-28T19:35:16.176Z,15.90
2023-09-28T19:37:43.653Z,16.70
2023-09-28T19:40:11.550Z,16.70
2023-09-28T19:42:41.461Z,16.50
2023-09-28T19:45:11.150Z,17.40
2023-09-28T19:47:38.769Z,19.00
2023-09-28T19:50:07.572Z,18.40
2023-09-28T19:52:35.291Z,16.80
2023-09-28T19:55:04.776Z,19.10
2023-09-28T19:57:32.136Z,20.30
2023-09-28T19:59:59.604Z,21.80
2023-09-28T20:02:27.205Z,18.90
2023-09-28T20:04:54.532Z,20.10
2023-09-28T20:07:22.463Z,19.00
2023-09-28T20:09:50.165Z,23.40
2023-09-28T20:12:18.846Z,24.00
2023-09-28T20:14:49.402Z,27.50
2023-09-28T20:17:17.321Z,24.60
2023-09-28T20:19:45.395Z,22.80
2023-09-28T20:22:12.718Z,20.90
2023-09-28T20:24:40.932Z,18.70
2023-09-28T20:27:08.242Z,17.90
2023-09-28T20:29:35.552Z,18.80
2023-09-28T20:32:03.368Z,18.50
2023-09-28T20:34:30.815Z,18.60
2023-09-28T20:36:58.097Z,17.70
2023-09-28T20:39:25.563Z,17.80
2023-09-28T20:41:53.130Z,17.00
2023-09-28T20:44:20.606Z,16.80
2023-09-28T20:46:48.004Z,17.40
2023-09-28T20:49:15.693Z,18.10
2023-09-28T20:51:43.665Z,17.90
2023-09-28T20:54:11.517Z,19.70
2023-09-28T20:56:38.878Z,19.70
2023-09-28T20:59:06.338Z,17.70
2023-09-28T21:01:33.812Z,19.50
2023-09-28T21:04:01.595Z,20.10
2023-09-28T21:06:31.288Z,21.70
2023-09-28T21:08:59.161Z,19.00
2023-09-28T21:11:26.636Z,20.30
2023-09-28T21:13:54.080Z,19.60
2023-09-28T21:16:22.189Z,18.90
2023-09-28T21:18:49.690Z,17.30
2023-09-28T21:21:19.366Z,18.70
2023-09-28T21:23:46.916Z,19.80
2023-09-28T21:26:14.510Z,18.70
2023-09-28T21:28:41.909Z,21.10
2023-09-28T21:31:12.472Z,18.50
2023-09-28T21:33:39.975Z,18.20
2023-09-28T21:36:07.830Z,19.70
2023-09-28T21:38:35.302Z,18.50
2023-09-28T21:41:12.154Z,19.40
2023-09-28T21:43:39.653Z,20.50
2023-09-28T21:46:07.235Z,19.70
2023-09-28T21:48:35.176Z,21.10
2023-09-28T21:51:03.735Z,20.60
2023-09-28T21:53:31.154Z,20.90
2023-09-28T21:55:59.770Z,19.50
2023-09-28T21:58:28.048Z,19.40
2023-09-28T22:00:55.367Z,20.60
2023-09-28T22:03:22.917Z,19.90
2023-09-28T22:05:54.735Z,22.10
2023-09-28T22:10:51.081Z,22.90
2023-09-28T22:13:18.574Z,21.80
2023-09-28T22:15:49.215Z,21.90
2023-09-28T22:18:17.165Z,20.40
2023-09-28T22:20:44.789Z,21.10
2023-09-28T22:23:12.218Z,22.90
2023-09-28T22:25:39.519Z,20.80
2023-09-28T22:28:06.953Z,21.90
2023-09-28T22:30:34.269Z,21.80
2023-09-28T22:33:01.863Z,22.40
2023-09-28T22:35:29.527Z,22.30
2023-09-28T22:37:57.498Z,22.60
2023-09-28T22:40:28.767Z,22.80
2023-09-28T22:45:24.626Z,23.40
2023-09-28T22:47:52.067Z,23.10
2023-09-28T22:50:19.747Z,23.10
2023-09-28T22:52:47.484Z,23.70
2023-09-28T22:55:14.781Z,22.20
2023-09-28T22:57:42.165Z,22.40
2023-09-28T23:00:14.095Z,21.00
2023-09-28T23:02:42.960Z,20.20
2023-09-28T23:05:10.951Z,19.80
2023-09-28T23:07:38.599Z,20.00
2023-09-28T23:10:06.509Z,23.20
2023-09-28T23:12:34.153Z,22.40
2023-09-28T23:15:01.571Z,22.40
2023-09-28T23:17:30.719Z,23.80
2023-09-28T23:19:58.202Z,23.40
2023-09-28T23:22:27.614Z,22.80
2023-09-28T23:24:55.649Z,25.00
2023-09-28T23:27:23.316Z,22.80
2023-09-28T23:29:51.937Z,23.10
2023-09-28T23:32:19.406Z,22.80
2023-09-28T23:34:46.960Z,25.20
2023-09-28T23:37:14.595Z,22.30
2023-09-28T23:39:42.588Z,22.10
2023-09-28T23:42:12.293Z,21.30
2023-09-28T23:44:39.655Z,20.30
2023-09-28T23:47:09.207Z,21.60
2023-09-28T23:49:36.985Z,25.50
2023-09-28T23:52:06.086Z,24.90
2023-09-28T23:54:33.663Z,25.00
2023-09-28T23:57:00.994Z,25.80
2023-09-28T23:59:28.308Z,23.10
